createdAt,value
2018-06-03T00:01:20.001Z,100694.39
2018-06-03T00:03:48.323Z,100696.46
2018-06-03T00:06:16.759Z,100693.52
2018-06-03T00:08:45.899Z,100694.09
2018-06-03T00:11:14.251Z,100693.73
2018-06-03T00:13:42.873Z,100690.11
2018-06-03T00:16:11.230Z,100697.11
2018-06-03T00:18:39.613Z,100694.68
2018-06-03T00:21:35.304Z,100691.52
2018-06-03T00:24:03.632Z,100682.83
2018-06-03T00:26:32.067Z,100685.15
2018-06-03T00:29:00.395Z,100682.90
2018-06-03T00:31:28.751Z,100682.90
2018-06-03T00:33:57.103Z,100686.11
2018-06-03T00:36:44.130Z,100689.40
2018-06-03T00:39:12.430Z,100683.74
2018-06-03T00:41:40.702Z,100683.40
2018-06-03T00:44:09.019Z,100683.77
2018-06-03T00:46:37.402Z,100685.34
2018-06-03T00:49:05.724Z,100689.86
2018-06-03T00:51:34.059Z,100685.76
2018-06-03T00:54:02.356Z,100689.11
2018-06-03T00:56:48.385Z,100684.90
2018-06-03T00:59:16.695Z,100687.34
2018-06-03T01:01:44.999Z,100685.93
2018-06-03T01:04:14.156Z,100686.93
2018-06-03T01:06:42.451Z,100683.65
2018-06-03T01:09:10.791Z,100683.80
2018-06-03T01:11:39.099Z,100684.62
2018-06-03T01:14:07.408Z,100675.09
2018-06-03T01:16:35.739Z,100674.23
2018-06-03T01:19:04.792Z,100679.46
2018-06-03T01:21:33.087Z,100675.67
2018-06-03T01:24:01.386Z,100669.84
2018-06-03T01:26:29.743Z,100669.44
2018-06-03T01:28:58.025Z,100671.97
2018-06-03T01:31:26.456Z,100671.25
2018-06-03T01:33:55.508Z,100675.88
2018-06-03T01:36:23.818Z,100675.31
2018-06-03T01:38:52.095Z,100669.99
2018-06-03T01:41:20.395Z,100669.75
2018-06-03T01:43:48.717Z,100657.86
2018-06-03T01:46:17.052Z,100660.87
2018-06-03T01:48:46.121Z,100661.13
2018-06-03T01:51:14.418Z,100658.78
2018-06-03T01:53:43.514Z,100655.70
2018-06-03T01:56:12.549Z,100652.86
2018-06-03T01:58:40.876Z,100650.86
2018-06-03T02:01:09.174Z,100652.28
2018-06-03T02:03:38.238Z,100658.59
2018-06-03T02:06:06.513Z,100657.05
2018-06-03T02:08:34.848Z,100652.62
2018-06-03T02:11:03.165Z,100646.83
2018-06-03T02:13:31.466Z,100651.09
2018-06-03T02:16:00.639Z,100650.69
2018-06-03T02:18:28.944Z,100656.41
2018-06-03T02:20:58.055Z,100656.30
2018-06-03T02:23:26.396Z,100654.48
2018-06-03T02:25:54.703Z,100654.22
2018-06-03T02:28:23.818Z,100654.09
2018-06-03T02:30:52.140Z,100654.27
2018-06-03T02:33:20.444Z,100656.55
2018-06-03T02:35:49.569Z,100652.22
2018-06-03T02:38:21.482Z,100651.59
2018-06-03T02:40:49.803Z,100649.50
2018-06-03T02:43:18.177Z,100647.88
2018-06-03T02:45:47.244Z,100648.28
2018-06-03T02:48:15.548Z,100649.22
2018-06-03T02:50:43.853Z,100647.68
2018-06-03T02:53:12.163Z,100647.98
2018-06-03T02:55:40.480Z,100649.86
2018-06-03T02:58:09.546Z,100652.75
2018-06-03T03:00:37.843Z,100651.53
2018-06-03T03:03:06.958Z,100651.13
2018-06-03T03:05:35.266Z,100647.14
2018-06-03T03:08:03.582Z,100652.67
2018-06-03T03:10:31.904Z,100650.39
2018-06-03T03:13:00.224Z,100647.34
2018-06-03T03:15:28.525Z,100647.95
2018-06-03T03:17:57.674Z,100646.11
2018-06-03T03:20:25.971Z,100647.52
2018-06-03T03:25:28.223Z,100648.16
2018-06-03T03:27:56.543Z,100651.16
2018-06-03T03:30:25.028Z,100650.84
2018-06-03T03:32:53.428Z,100648.95
2018-06-03T03:35:22.592Z,100646.60
2018-06-03T03:37:50.883Z,100644.17
2018-06-03T03:40:19.230Z,100642.59
2018-06-03T03:42:47.533Z,100646.55
2018-06-03T03:45:15.854Z,100644.50
2018-06-03T03:47:44.174Z,100647.27
2018-06-03T03:50:12.471Z,100641.42
2018-06-03T03:52:40.905Z,100638.52
2018-06-03T03:55:12.336Z,100640.70
2018-06-03T03:57:40.621Z,100650.25
2018-06-03T04:00:08.928Z,100652.72
2018-06-03T04:02:37.231Z,100653.46
2018-06-03T04:05:05.544Z,100654.53
2018-06-03T04:07:33.870Z,100656.08
2018-06-03T04:10:02.202Z,100656.84
2018-06-03T04:12:31.284Z,100661.20
2018-06-03T04:15:00.393Z,100657.98
2018-06-03T04:17:29.454Z,100668.61
2018-06-03T04:19:57.869Z,100666.44
2018-06-03T04:22:26.927Z,100664.91
2018-06-03T04:25:23.514Z,100667.00
2018-06-03T04:27:56.888Z,100671.42
2018-06-03T04:30:26.457Z,100668.95
2018-06-03T04:35:30.828Z,100673.05
2018-06-03T04:38:00.465Z,100681.51
2018-06-03T04:40:30.085Z,100679.42
2018-06-03T04:42:59.698Z,100680.11
2018-06-03T04:45:29.263Z,100688.45
2018-06-03T04:47:58.900Z,100687.92
2018-06-03T04:50:28.831Z,100687.98
2018-06-03T04:52:58.564Z,100688.44
2018-06-03T04:55:28.108Z,100690.76
2018-06-03T04:57:57.839Z,100688.16
2018-06-03T05:00:27.378Z,100691.05
2018-06-03T05:02:56.952Z,100697.47
2018-06-03T05:05:26.647Z,100694.77
2018-06-03T05:07:57.115Z,100696.94
2018-06-03T05:10:26.680Z,100697.22
2018-06-03T05:12:59.560Z,100693.61
2018-06-03T05:15:29.191Z,100693.09
2018-06-03T05:17:58.975Z,100697.38
2018-06-03T05:23:05.007Z,100691.75
2018-06-03T05:25:34.581Z,100698.74
2018-06-03T05:28:04.285Z,100697.28
2018-06-03T05:30:33.925Z,100702.84
2018-06-03T05:33:03.519Z,100699.95
2018-06-03T05:35:33.135Z,100702.12
2018-06-03T05:38:02.878Z,100700.64
2018-06-03T05:40:32.476Z,100700.11
2018-06-03T05:43:02.168Z,100697.87
2018-06-03T05:45:31.796Z,100695.16
2018-06-03T05:48:01.411Z,100695.23
2018-06-03T05:50:31.132Z,100695.50
2018-06-03T05:53:00.801Z,100691.29
2018-06-03T05:55:30.432Z,100690.80
2018-06-03T05:58:00.064Z,100698.70
2018-06-03T06:00:29.683Z,100697.04
2018-06-03T06:02:59.345Z,100698.61
2018-06-03T06:05:29.289Z,100699.50
2018-06-03T06:07:58.838Z,100701.67
2018-06-03T06:10:28.494Z,100699.38
2018-06-03T06:12:58.211Z,100700.19
2018-06-03T06:15:31.595Z,100706.39
2018-06-03T06:18:01.204Z,100715.69
2018-06-03T06:20:30.862Z,100711.33
2018-06-03T06:23:00.625Z,100710.17
2018-06-03T06:25:30.396Z,100710.16
2018-06-03T06:27:59.984Z,100718.09
2018-06-03T06:30:29.619Z,100720.16
2018-06-03T06:32:59.276Z,100728.13
2018-06-03T06:38:04.036Z,100725.83
2018-06-03T06:40:33.690Z,100718.24
2018-06-03T06:43:03.244Z,100723.11
2018-06-03T06:45:32.895Z,100727.55
2018-06-03T06:48:02.543Z,100723.95
2018-06-03T06:50:36.130Z,100731.66
2018-06-03T06:53:05.861Z,100731.35
2018-06-03T06:55:35.489Z,100730.80
2018-06-03T06:58:05.405Z,100737.86
2018-06-03T07:00:34.981Z,100733.20
2018-06-03T07:03:04.605Z,100737.08
2018-06-03T07:05:34.259Z,100739.05
2018-06-03T07:08:04.076Z,100734.27
2018-06-03T07:13:09.314Z,100743.23
2018-06-03T07:15:38.894Z,100739.83
2018-06-03T07:18:08.583Z,100743.13
2018-06-03T07:20:38.181Z,100746.39
2018-06-03T07:23:07.774Z,100738.81
2018-06-03T07:25:37.440Z,100742.01
2018-06-03T07:28:07.106Z,100743.70
2018-06-03T07:30:36.713Z,100743.56
2018-06-03T07:33:06.461Z,100738.54
2018-06-03T07:35:36.088Z,100734.55
2018-06-03T07:38:05.735Z,100731.94
2018-06-03T07:40:35.337Z,100728.27
2018-06-03T07:43:08.415Z,100735.56
2018-06-03T07:45:38.163Z,100735.54
2018-06-03T07:48:07.852Z,100728.81
2018-06-03T07:50:37.503Z,100728.52
2018-06-03T07:53:07.067Z,100724.47
2018-06-03T07:55:36.708Z,100730.16
2018-06-03T07:58:06.313Z,100731.39
2018-06-03T08:00:35.932Z,100725.84
2018-06-03T08:03:05.689Z,100731.69
2018-06-03T08:05:35.420Z,100731.10
2018-06-03T08:08:05.202Z,100732.46
2018-06-03T08:10:34.914Z,100734.41
2018-06-03T08:13:04.515Z,100731.47
2018-06-03T08:15:34.190Z,100729.80
2018-06-03T08:18:03.859Z,100734.38
2018-06-03T08:20:33.553Z,100730.69
2018-06-03T08:23:03.224Z,100732.85
2018-06-03T08:25:32.854Z,100732.03
2018-06-03T08:28:02.518Z,100730.64
2018-06-03T08:30:32.653Z,100730.64
2018-06-03T08:33:02.259Z,100727.64
2018-06-03T08:35:31.849Z,100732.31
2018-06-03T08:38:01.467Z,100738.98
2018-06-03T08:40:31.095Z,100741.08
2018-06-03T08:43:00.729Z,100740.66
2018-06-03T08:45:30.339Z,100727.52
2018-06-03T08:47:59.907Z,100728.91
2018-06-03T08:50:29.606Z,100733.86
2018-06-03T08:52:59.162Z,100721.83
2018-06-03T08:55:28.806Z,100723.83
2018-06-03T08:57:58.450Z,100719.25
2018-06-03T09:00:28.102Z,100723.16
2018-06-03T09:02:57.737Z,100730.30
2018-06-03T09:05:27.449Z,100727.43
2018-06-03T09:07:57.019Z,100732.03
2018-06-03T09:10:26.786Z,100735.03
2018-06-03T09:12:56.418Z,100733.59
2018-06-03T09:15:29.359Z,100731.18
2018-06-03T09:17:58.960Z,100738.83
2018-06-03T09:20:31.617Z,100731.47
2018-06-03T09:23:01.322Z,100738.17
2018-06-03T09:25:31.011Z,100729.06
2018-06-03T09:28:00.670Z,100735.50
2018-06-03T09:30:30.345Z,100732.80
2018-06-03T09:33:00.013Z,100735.55
2018-06-03T09:35:30.035Z,100730.08
2018-06-03T09:37:59.758Z,100728.53
2018-06-03T09:40:29.560Z,100724.75
2018-06-03T09:42:59.273Z,100730.95
2018-06-03T09:45:29.383Z,100726.89
2018-06-03T09:47:59.158Z,100739.06
2018-06-03T09:50:28.924Z,100735.02
2018-06-03T09:52:58.675Z,100733.22
2018-06-03T09:55:28.450Z,100728.80
2018-06-03T09:57:58.054Z,100728.66
2018-06-03T10:00:28.753Z,100728.91
2018-06-03T10:02:58.331Z,100729.41
2018-06-03T10:05:28.527Z,100726.08
2018-06-03T10:08:02.084Z,100721.93
2018-06-03T10:10:31.894Z,100721.44
2018-06-03T10:13:01.552Z,100725.98
2018-06-03T10:15:31.159Z,100716.20
2018-06-03T10:18:00.837Z,100711.48
2018-06-03T10:20:30.569Z,100711.44
2018-06-03T10:23:00.195Z,100716.28
2018-06-03T10:25:29.931Z,100721.19
2018-06-03T10:28:03.148Z,100709.04
2018-06-03T10:30:32.954Z,100713.38
2018-06-03T10:33:02.871Z,100722.23
2018-06-03T10:35:32.834Z,100719.85
2018-06-03T10:38:02.709Z,100716.91
2018-06-03T10:40:32.516Z,100726.58
2018-06-03T10:43:02.142Z,100717.94
2018-06-03T10:45:31.989Z,100725.03
2018-06-03T10:48:01.657Z,100725.25
2018-06-03T10:50:31.414Z,100716.88
2018-06-03T10:53:01.183Z,100713.38
2018-06-03T10:55:30.918Z,100715.25
2018-06-03T10:58:00.921Z,100720.14
2018-06-03T11:00:30.574Z,100721.20
2018-06-03T11:03:00.369Z,100716.08
2018-06-03T11:05:30.184Z,100716.89
2018-06-03T11:07:59.926Z,100713.90
2018-06-03T11:10:29.819Z,100710.93
2018-06-03T11:12:59.499Z,100712.55
2018-06-03T11:15:29.209Z,100710.73
2018-06-03T11:17:59.003Z,100710.98
2018-06-03T11:20:29.046Z,100703.59
2018-06-03T11:22:58.785Z,100701.86
2018-06-03T11:25:28.449Z,100704.86
2018-06-03T11:27:58.172Z,100705.55
2018-06-03T11:30:27.894Z,100704.75
2018-06-03T11:32:57.568Z,100701.52
2018-06-03T11:35:27.382Z,100698.47
2018-06-03T11:37:57.066Z,100703.86
2018-06-03T11:40:26.796Z,100705.47
2018-06-03T11:42:56.517Z,100697.44
2018-06-03T11:45:26.255Z,100693.33
2018-06-03T11:47:55.882Z,100697.28
2018-06-03T11:50:25.513Z,100705.19
2018-06-03T11:52:55.386Z,100706.98
2018-06-03T11:55:25.124Z,100703.44
2018-06-03T11:58:41.493Z,100704.20
2018-06-03T12:01:11.564Z,100704.09
2018-06-03T12:03:41.610Z,100701.84
2018-06-03T12:06:11.346Z,100699.22
2018-06-03T12:08:41.327Z,100697.14
2018-06-03T12:11:11.029Z,100690.96
2018-06-03T12:13:40.908Z,100691.41
2018-06-03T12:16:10.724Z,100697.21
2018-06-03T12:18:40.515Z,100688.63
2018-06-03T12:21:10.336Z,100687.66
2018-06-03T12:23:40.840Z,100684.27
2018-06-03T12:26:10.519Z,100686.91
2018-06-03T12:28:40.355Z,100683.02
2018-06-03T12:31:10.084Z,100679.31
2018-06-03T12:33:39.774Z,100680.78
2018-06-03T12:36:09.382Z,100682.77
2018-06-03T12:38:38.745Z,100679.80
2018-06-03T12:41:08.466Z,100677.19
2018-06-03T12:43:38.150Z,100668.34
2018-06-03T12:46:07.894Z,100669.86
2018-06-03T12:48:37.542Z,100663.67
2018-06-03T12:51:07.242Z,100663.98
2018-06-03T12:53:36.957Z,100673.39
2018-06-03T12:56:06.619Z,100657.23
2018-06-03T12:58:36.219Z,100654.81
2018-06-03T13:01:05.877Z,100654.02
2018-06-03T13:03:35.412Z,100651.33
2018-06-03T13:06:05.059Z,100663.09
2018-06-03T13:11:09.541Z,100652.59
2018-06-03T13:13:39.108Z,100643.73
2018-06-03T13:16:08.725Z,100650.69
2018-06-03T13:18:38.500Z,100648.36
2018-06-03T13:21:08.154Z,100648.02
2018-06-03T13:23:37.835Z,100649.27
2018-06-03T13:26:07.580Z,100649.10
2018-06-03T13:28:41.052Z,100647.26
2018-06-03T13:31:10.691Z,100647.61
2018-06-03T13:33:40.438Z,100645.15
2018-06-03T13:36:10.093Z,100637.22
2018-06-03T13:38:39.962Z,100637.70
2018-06-03T13:41:09.598Z,100632.61
2018-06-03T13:43:39.252Z,100632.02
2018-06-03T13:46:08.911Z,100623.66
2018-06-03T13:51:13.618Z,100620.92
2018-06-03T13:53:43.496Z,100622.31
2018-06-03T13:56:13.219Z,100611.69
2018-06-03T13:58:42.845Z,100616.43
2018-06-03T14:01:12.509Z,100624.44
2018-06-03T14:03:42.247Z,100608.01
2018-06-03T14:06:11.896Z,100611.11
2018-06-03T14:08:41.954Z,100614.03
2018-06-03T14:11:11.670Z,100610.04
2018-06-03T14:13:41.370Z,100607.03
2018-06-03T14:16:11.149Z,100604.73
2018-06-03T14:18:40.788Z,100603.33
2018-06-03T14:21:10.484Z,100600.70
2018-06-03T14:23:40.169Z,100596.06
2018-06-03T14:26:09.929Z,100594.66
2018-06-03T14:28:39.505Z,100598.95
2018-06-03T14:33:44.715Z,100586.50
2018-06-03T14:36:15.723Z,100578.33
2018-06-03T14:38:45.444Z,100580.51
2018-06-03T14:41:15.164Z,100585.34
2018-06-03T14:43:44.821Z,100577.19
2018-06-03T14:46:18.433Z,100576.88
2018-06-03T14:48:47.989Z,100577.07
2018-06-03T14:51:17.645Z,100571.44
2018-06-03T14:53:47.236Z,100572.67
2018-06-03T14:56:16.923Z,100571.00
2018-06-03T14:58:46.481Z,100568.84
2018-06-03T15:01:16.061Z,100569.58
2018-06-03T15:03:45.711Z,100567.53
2018-06-03T15:06:15.338Z,100562.05
2018-06-03T15:08:44.960Z,100552.97
2018-06-03T15:11:14.658Z,100557.47
2018-06-03T15:13:44.295Z,100555.69
2018-06-03T15:16:17.668Z,100551.42
2018-06-03T15:18:47.372Z,100552.73
2018-06-03T15:21:17.119Z,100540.27
2018-06-03T15:23:46.936Z,100538.45
2018-06-03T15:26:16.759Z,100539.70
2018-06-03T15:28:46.354Z,100536.53
2018-06-03T15:31:16.082Z,100529.09
2018-06-03T15:33:45.701Z,100524.87
2018-06-03T15:36:15.402Z,100526.19
2018-06-03T15:38:45.117Z,100520.36
2018-06-03T15:43:50.215Z,100512.80
2018-06-03T15:46:19.840Z,100504.50
2018-06-03T15:48:49.411Z,100506.66
2018-06-03T15:51:18.982Z,100502.59
2018-06-03T15:53:48.636Z,100497.14
2018-06-03T15:56:18.437Z,100499.14
2018-06-03T15:58:48.124Z,100498.00
2018-06-03T16:01:17.773Z,100500.39
2018-06-03T16:03:47.403Z,100490.45
2018-06-03T16:06:19.996Z,100493.55
2018-06-03T16:08:49.630Z,100487.79
2018-06-03T16:11:19.281Z,100489.00
2018-06-03T16:13:48.924Z,100481.84
2018-06-03T16:16:18.879Z,100481.37
2018-06-03T16:18:48.617Z,100479.33
2018-06-03T16:21:18.281Z,100481.56
2018-06-03T16:23:47.955Z,100476.98
2018-06-03T16:26:17.874Z,100474.38
2018-06-03T16:28:47.568Z,100466.78
2018-06-03T16:31:17.316Z,100464.36
2018-06-03T16:33:47.061Z,100464.10
2018-06-03T16:36:16.693Z,100459.80
2018-06-03T16:38:49.821Z,100458.91
2018-06-03T16:41:19.571Z,100458.87
2018-06-03T16:46:24.179Z,100457.28
2018-06-03T16:51:28.878Z,100456.01
2018-06-03T16:54:05.643Z,100456.56
2018-06-03T16:56:35.342Z,100453.55
2018-06-03T16:59:05.432Z,100446.65
2018-06-03T17:01:35.068Z,100454.59
2018-06-03T17:04:05.892Z,100457.58
2018-06-03T17:06:35.532Z,100458.38
2018-06-03T17:09:06.805Z,100464.75
2018-06-03T17:11:36.479Z,100457.46
2018-06-03T17:14:06.197Z,100449.54
2018-06-03T17:16:35.838Z,100453.66
2018-06-03T17:19:05.518Z,100449.29
2018-06-03T17:21:35.146Z,100452.45
2018-06-03T17:24:05.222Z,100452.70
2018-06-03T17:26:34.947Z,100451.23
2018-06-03T17:29:07.520Z,100449.53
2018-06-03T17:31:37.298Z,100450.82
2018-06-03T17:34:07.079Z,100441.75
2018-06-03T17:36:36.708Z,100444.72
2018-06-03T17:39:08.969Z,100448.03
2018-06-03T17:41:38.303Z,100438.73
2018-06-03T17:44:07.955Z,100441.08
2018-06-03T17:46:37.669Z,100440.48
2018-06-03T17:49:07.623Z,100440.23
2018-06-03T17:51:37.561Z,100432.76
2018-06-03T17:54:07.283Z,100430.66
2018-06-03T17:56:37.049Z,100424.08
2018-06-03T17:59:06.892Z,100424.63
2018-06-03T18:01:36.726Z,100417.45
2018-06-03T18:04:06.647Z,100413.84
2018-06-03T18:06:36.415Z,100417.09
2018-06-03T18:09:08.926Z,100412.52
2018-06-03T18:11:38.585Z,100410.36
2018-06-03T18:14:08.586Z,100404.19
2018-06-03T18:16:38.542Z,100411.61
2018-06-03T18:19:08.266Z,100410.92
2018-06-03T18:21:39.661Z,100409.02
2018-06-03T18:24:09.223Z,100412.07
2018-06-03T18:26:38.943Z,100411.02
2018-06-03T18:29:08.653Z,100404.53
2018-06-03T18:31:38.409Z,100405.59
2018-06-03T18:34:08.158Z,100410.49
2018-06-03T18:36:41.470Z,100403.22
2018-06-03T18:39:11.210Z,100406.47
2018-06-03T18:41:40.943Z,100396.45
2018-06-03T18:44:10.692Z,100397.29
2018-06-03T18:46:40.456Z,100392.71
2018-06-03T18:49:10.345Z,100398.74
2018-06-03T18:51:40.078Z,100399.00
2018-06-03T18:54:09.793Z,100393.61
2018-06-03T18:56:39.538Z,100390.69
2018-06-03T18:59:09.501Z,100396.09
2018-06-03T19:01:41.140Z,100383.95
2018-06-03T19:04:11.092Z,100391.55
2018-06-03T19:06:40.898Z,100392.90
2018-06-03T19:09:10.645Z,100394.83
2018-06-03T19:11:40.383Z,100390.80
2018-06-03T19:14:10.304Z,100393.50
2018-06-03T19:16:40.758Z,100390.02
2018-06-03T19:19:10.585Z,100385.17
2018-06-03T19:21:40.420Z,100384.64
2018-06-03T19:24:10.293Z,100390.06
2018-06-03T19:26:40.170Z,100389.52
2018-06-03T19:29:10.225Z,100387.34
2018-06-03T19:31:40.016Z,100394.10
2018-06-03T19:34:09.943Z,100395.50
2018-06-03T19:36:40.007Z,100394.97
2018-06-03T19:39:10.471Z,100405.27
2018-06-03T19:41:40.368Z,100404.75
2018-06-03T19:44:10.443Z,100406.13
2018-06-03T19:46:40.473Z,100410.70
2018-06-03T19:49:10.149Z,100409.36
2018-06-03T19:51:40.031Z,100413.97
2018-06-03T19:54:09.961Z,100415.06
2018-06-03T19:56:39.889Z,100413.19
2018-06-03T19:59:09.685Z,100418.59
2018-06-03T20:01:39.529Z,100422.63
2018-06-03T20:04:09.316Z,100421.85
2018-06-03T20:06:39.152Z,100421.02
2018-06-03T20:09:09.363Z,100422.34
2018-06-03T20:11:39.064Z,100428.82
2018-06-03T20:14:13.160Z,100425.06
2018-06-03T20:16:42.962Z,100426.66
2018-06-03T20:19:13.308Z,100422.31
2018-06-03T20:24:18.532Z,100422.59
2018-06-03T20:26:48.812Z,100420.11
2018-06-03T20:29:18.467Z,100422.48
2018-06-03T20:31:48.198Z,100418.39
2018-06-03T20:34:17.883Z,100422.14
2018-06-03T21:15:12.683Z,100415.66
2018-06-03T21:17:43.462Z,100417.53
2018-06-03T21:25:37.710Z,100418.61
2018-06-03T21:28:07.395Z,100418.80
2018-06-03T21:30:37.071Z,100417.91
2018-06-03T21:33:06.959Z,100418.95
2018-06-03T21:35:36.629Z,100415.14
2018-06-03T21:38:11.899Z,100411.60
2018-06-03T21:40:41.627Z,100416.70
2018-06-03T21:43:11.280Z,100412.90
2018-06-03T21:45:40.993Z,100413.70
2018-06-03T21:48:10.676Z,100417.92
2018-06-03T21:50:40.358Z,100418.45
2018-06-03T21:53:10.077Z,100416.30
2018-06-03T21:55:39.726Z,100419.70
2018-06-03T21:58:09.407Z,100414.77
2018-06-03T22:00:39.040Z,100413.78
2018-06-03T22:03:08.693Z,100413.78
2018-06-03T22:05:38.325Z,100411.04
2018-06-03T22:08:07.934Z,100409.42
2018-06-03T22:10:37.755Z,100411.20
2018-06-03T22:13:07.536Z,100405.88
2018-06-03T22:15:37.310Z,100412.70
2018-06-03T22:18:07.086Z,100407.05
2018-06-03T22:20:36.993Z,100415.57
2018-06-03T22:23:06.722Z,100414.97
2018-06-03T22:25:36.405Z,100412.55
2018-06-03T22:28:06.127Z,100411.16
2018-06-03T22:30:35.876Z,100412.77
2018-06-03T22:33:05.609Z,100413.14
2018-06-03T22:35:35.294Z,100412.98
2018-06-03T22:38:04.912Z,100417.62
2018-06-03T22:40:34.975Z,100415.61
2018-06-03T22:43:04.963Z,100411.36
2018-06-03T22:45:34.591Z,100417.45
2018-06-03T22:48:04.207Z,100411.95
2018-06-03T22:50:33.978Z,100410.95
2018-06-03T22:53:03.581Z,100409.22
2018-06-03T22:55:33.226Z,100413.69
2018-06-03T22:58:02.525Z,100416.59
2018-06-03T23:00:33.132Z,100411.68
2018-06-03T23:03:08.068Z,100411.94
2018-06-03T23:05:37.773Z,100408.70
2018-06-03T23:08:07.360Z,100411.08
2018-06-03T23:10:36.991Z,100408.39
2018-06-03T23:13:07.112Z,100407.05
2018-06-03T23:15:36.850Z,100407.63
2018-06-03T23:18:06.460Z,100405.36
2018-06-03T23:20:36.178Z,100398.62
2018-06-03T23:23:06.043Z,100398.84
2018-06-03T23:25:35.640Z,100397.30
2018-06-03T23:28:05.292Z,100403.34
2018-06-03T23:30:34.852Z,100401.64
2018-06-03T23:33:04.473Z,100395.36
2018-06-03T23:35:34.040Z,100398.50
2018-06-03T23:38:03.640Z,100401.20
2018-06-03T23:40:33.199Z,100398.64
2018-06-03T23:43:02.759Z,100392.27
2018-06-03T23:45:32.338Z,100389.70
2018-06-03T23:48:01.948Z,100391.28
2018-06-03T23:50:31.568Z,100381.86
2018-06-03T23:53:01.218Z,100382.77
2018-06-03T23:55:30.853Z,100376.75
2018-06-03T23:58:00.516Z,100376.09
